sensor_id;sensor_type;location;lat;lon;timestamp;temperature;humidity
51637;DHT22;37713;53.254;6.460;2022-08-01T00:00:33;18.00;99.90
51637;DHT22;37713;53.254;6.460;2022-08-01T00:02:59;17.80;99.90
51637;DHT22;37713;53.254;6.460;2022-08-01T00:05:25;17.90;99.90
51637;DHT22;37713;53.254;6.460;2022-08-01T00:07:51;17.80;99.90
51637;DHT22;37713;53.254;6.460;2022-08-01T00:10:17;17.90;99.90
51637;DHT22;37713;53.254;6.460;2022-08-01T00:12:44;17.90;99.90
51637;DHT22;37713;53.254;6.460;2022-08-01T00:15:12;17.70;99.90
51637;DHT22;37713;53.254;6.460;2022-08-01T00:17:38;17.90;99.90
51637;DHT22;37713;53.254;6.460;2022-08-01T00:20:08;17.80;99.90
51637;DHT22;37713;53.254;6.460;2022-08-01T00:22:35;17.70;99.90
51637;DHT22;37713;53.254;6.460;2022-08-01T00:25:01;17.80;99.90
51637;DHT22;37713;53.254;6.460;2022-08-01T00:27:27;17.70;99.90
51637;DHT22;37713;53.254;6.460;2022-08-01T00:29:53;17.70;99.90
51637;DHT22;37713;53.254;6.460;2022-08-01T00:32:19;17.80;99.90
51637;DHT22;37713;53.254;6.460;2022-08-01T00:34:45;17.70;99.90
51637;DHT22;37713;53.254;6.460;2022-08-01T00:37:10;17.80;99.90
51637;DHT22;37713;53.254;6.460;2022-08-01T00:39:36;17.60;99.90
51637;DHT22;37713;53.254;6.460;2022-08-01T00:42:07;17.60;99.90
51637;DHT22;37713;53.254;6.460;2022-08-01T00:44:33;17.60;99.90
51637;DHT22;37713;53.254;6.460;2022-08-01T00:46:59;17.50;99.90
51637;DHT22;37713;53.254;6.460;2022-08-01T00:49:26;17.70;99.90
51637;DHT22;37713;53.254;6.460;2022-08-01T00:51:52;17.60;99.90
51637;DHT22;37713;53.254;6.460;2022-08-01T00:54:18;17.50;99.90
51637;DHT22;37713;53.254;6.460;2022-08-01T00:56:44;17.40;99.90
51637;DHT22;37713;53.254;6.460;2022-08-01T00:59:12;17.70;99.90
51637;DHT22;37713;53.254;6.460;2022-08-01T01:01:37;17.50;99.90
51637;DHT22;37713;53.254;6.460;2022-08-01T01:04:03;17.40;99.90
51637;DHT22;37713;53.254;6.460;2022-08-01T01:07:09;17.40;99.90
51637;DHT22;37713;53.254;6.460;2022-08-01T01:12:38;17.40;99.90
51637;DHT22;37713;53.254;6.460;2022-08-01T01:15:13;17.30;99.90
51637;DHT22;37713;53.254;6.460;2022-08-01T01:17:51;17.30;99.90
51637;DHT22;37713;53.254;6.460;2022-08-01T01:20:21;17.20;99.90
51637;DHT22;37713;53.254;6.460;2022-08-01T01:23:16;17.30;99.90
51637;DHT22;37713;53.254;6.460;2022-08-01T01:26:11;17.10;99.90
51637;DHT22;37713;53.254;6.460;2022-08-01T01:34:13;17.10;99.90
51637;DHT22;37713;53.254;6.460;2022-08-01T01:36:42;17.00;99.90
51637;DHT22;37713;53.254;6.460;2022-08-01T01:39:09;17.00;99.90
51637;DHT22;37713;53.254;6.460;2022-08-01T01:41:36;17.20;99.90
51637;DHT22;37713;53.254;6.460;2022-08-01T01:44:04;17.00;99.90
51637;DHT22;37713;53.254;6.460;2022-08-01T01:46:31;16.90;99.90
51637;DHT22;37713;53.254;6.460;2022-08-01T01:48:58;16.90;99.90
51637;DHT22;37713;53.254;6.460;2022-08-01T01:51:26;17.10;99.90
51637;DHT22;37713;53.254;6.460;2022-08-01T01:53:54;17.10;99.90
51637;DHT22;37713;53.254;6.460;2022-08-01T01:56:22;16.80;99.90
51637;DHT22;37713;53.254;6.460;2022-08-01T01:58:57;16.90;99.90
51637;DHT22;37713;53.254;6.460;2022-08-01T02:01:28;16.90;99.90
51637;DHT22;37713;53.254;6.460;2022-08-01T02:03:56;17.00;99.90
51637;DHT22;37713;53.254;6.460;2022-08-01T02:06:23;16.90;99.90
51637;DHT22;37713;53.254;6.460;2022-08-01T02:08:50;17.00;99.90
51637;DHT22;37713;53.254;6.460;2022-08-01T02:11:19;16.90;99.90
51637;DHT22;37713;53.254;6.460;2022-08-01T02:13:53;16.80;99.90
51637;DHT22;37713;53.254;6.460;2022-08-01T02:16:24;17.00;99.90
51637;DHT22;37713;53.254;6.460;2022-08-01T02:18:50;16.90;99.90
51637;DHT22;37713;53.254;6.460;2022-08-01T02:21:55;17.00;99.90
51637;DHT22;37713;53.254;6.460;2022-08-01T02:24:20;16.70;99.90
51637;DHT22;37713;53.254;6.460;2022-08-01T02:26:51;16.80;99.90
51637;DHT22;37713;53.254;6.460;2022-08-01T02:29:49;16.60;99.90
51637;DHT22;37713;53.254;6.460;2022-08-01T02:32:30;16.60;99.90
51637;DHT22;37713;53.254;6.460;2022-08-01T02:34:57;16.80;99.90
51637;DHT22;37713;53.254;6.460;2022-08-01T02:37:26;16.60;99.90
51637;DHT22;37713;53.254;6.460;2022-08-01T02:39:54;16.60;99.90
51637;DHT22;37713;53.254;6.460;2022-08-01T02:42:23;16.70;99.90
51637;DHT22;37713;53.254;6.460;2022-08-01T02:44:50;16.70;99.90
51637;DHT22;37713;53.254;6.460;2022-08-01T02:47:19;16.60;99.90
51637;DHT22;37713;53.254;6.460;2022-08-01T02:49:47;16.70;99.90
51637;DHT22;37713;53.254;6.460;2022-08-01T02:52:16;16.70;99.90
51637;DHT22;37713;53.254;6.460;2022-08-01T02:54:44;16.70;99.90
51637;DHT22;37713;53.254;6.460;2022-08-01T02:57:10;16.50;99.90
51637;DHT22;37713;53.254;6.460;2022-08-01T02:59:39;16.60;99.90
51637;DHT22;37713;53.254;6.460;2022-08-01T03:02:07;16.60;99.90
51637;DHT22;37713;53.254;6.460;2022-08-01T03:04:34;16.50;99.90
51637;DHT22;37713;53.254;6.460;2022-08-01T03:07:03;16.60;99.90
51637;DHT22;37713;53.254;6.460;2022-08-01T03:09:32;16.60;99.90
51637;DHT22;37713;53.254;6.460;2022-08-01T03:12:02;16.40;99.90
51637;DHT22;37713;53.254;6.460;2022-08-01T03:14:29;16.50;99.90
51637;DHT22;37713;53.254;6.460;2022-08-01T03:16:57;16.40;99.90
51637;DHT22;37713;53.254;6.460;2022-08-01T03:19:25;16.50;99.90
51637;DHT22;37713;53.254;6.460;2022-08-01T03:21:54;16.30;99.90
51637;DHT22;37713;53.254;6.460;2022-08-01T03:24:21;16.40;99.90
51637;DHT22;37713;53.254;6.460;2022-08-01T03:26:50;16.40;99.90
51637;DHT22;37713;53.254;6.460;2022-08-01T03:29:21;16.20;99.90
51637;DHT22;37713;53.254;6.460;2022-08-01T03:31:48;16.40;99.90
51637;DHT22;37713;53.254;6.460;2022-08-01T03:34:15;16.30;99.90
51637;DHT22;37713;53.254;6.460;2022-08-01T03:36:49;16.10;99.90
51637;DHT22;37713;53.254;6.460;2022-08-01T03:39:18;16.20;99.90
51637;DHT22;37713;53.254;6.460;2022-08-01T03:41:51;16.10;99.90
51637;DHT22;37713;53.254;6.460;2022-08-01T03:44:23;16.00;99.90
51637;DHT22;37713;53.254;6.460;2022-08-01T03:46:51;16.00;99.90
51637;DHT22;37713;53.254;6.460;2022-08-01T03:49:30;16.00;99.90
51637;DHT22;37713;53.254;6.460;2022-08-01T03:51:57;16.10;99.90
51637;DHT22;37713;53.254;6.460;2022-08-01T03:54:26;16.00;99.90
51637;DHT22;37713;53.254;6.460;2022-08-01T03:56:53;16.00;99.90
51637;DHT22;37713;53.254;6.460;2022-08-01T03:59:20;16.00;99.90
51637;DHT22;37713;53.254;6.460;2022-08-01T04:01:47;16.10;99.90
51637;DHT22;37713;53.254;6.460;2022-08-01T04:04:14;15.90;99.90
51637;DHT22;37713;53.254;6.460;2022-08-01T04:06:43;16.10;99.90
51637;DHT22;37713;53.254;6.460;2022-08-01T04:09:11;16.10;99.90
51637;DHT22;37713;53.254;6.460;2022-08-01T04:11:37;16.10;99.90
51637;DHT22;37713;53.254;6.460;2022-08-01T04:14:03;16.00;99.90
51637;DHT22;37713;53.254;6.460;2022-08-01T04:16:29;16.00;99.90
51637;DHT22;37713;53.254;6.460;2022-08-01T04:18:55;16.10;99.90
51637;DHT22;37713;53.254;6.460;2022-08-01T04:21:24;16.00;99.90
51637;DHT22;37713;53.254;6.460;2022-08-01T04:23:55;16.10;99.90
51637;DHT22;37713;53.254;6.460;2022-08-01T04:26:24;16.20;99.90
51637;DHT22;37713;53.254;6.460;2022-08-01T04:28:52;16.00;99.90
51637;DHT22;37713;53.254;6.460;2022-08-01T04:31:20;16.00;99.90
51637;DHT22;37713;53.254;6.460;2022-08-01T04:33:49;16.00;99.90
51637;DHT22;37713;53.254;6.460;2022-08-01T04:36:19;16.10;99.90
51637;DHT22;37713;53.254;6.460;2022-08-01T04:38:52;16.10;99.90
51637;DHT22;37713;53.254;6.460;2022-08-01T04:41:20;16.10;99.90
51637;DHT22;37713;53.254;6.460;2022-08-01T04:43:47;16.10;99.90
51637;DHT22;37713;53.254;6.460;2022-08-01T04:46:14;16.00;99.90
51637;DHT22;37713;53.254;6.460;2022-08-01T04:48:41;15.90;99.90
51637;DHT22;37713;53.254;6.460;2022-08-01T04:51:17;16.00;99.90
51637;DHT22;37713;53.254;6.460;2022-08-01T04:53:47;15.90;99.90
51637;DHT22;37713;53.254;6.460;2022-08-01T04:56:13;16.00;99.90
51637;DHT22;37713;53.254;6.460;2022-08-01T04:58:40;15.80;99.90
51637;DHT22;37713;53.254;6.460;2022-08-01T05:01:07;16.00;99.90
51637;DHT22;37713;53.254;6.460;2022-08-01T05:03:33;15.90;99.90
51637;DHT22;37713;53.254;6.460;2022-08-01T05:05:59;16.00;99.90
51637;DHT22;37713;53.254;6.460;2022-08-01T05:08:25;15.80;99.90
51637;DHT22;37713;53.254;6.460;2022-08-01T05:10:50;16.00;99.90
51637;DHT22;37713;53.254;6.460;2022-08-01T05:13:16;16.00;99.90
51637;DHT22;37713;53.254;6.460;2022-08-01T05:15:42;16.00;99.90
51637;DHT22;37713;53.254;6.460;2022-08-01T05:18:08;16.00;99.90
51637;DHT22;37713;53.254;6.460;2022-08-01T05:20:35;16.00;99.90
51637;DHT22;37713;53.254;6.460;2022-08-01T05:23:02;16.10;99.90
51637;DHT22;37713;53.254;6.460;2022-08-01T05:25:28;15.90;99.90
51637;DHT22;37713;53.254;6.460;2022-08-01T05:27:54;15.90;99.90
51637;DHT22;37713;53.254;6.460;2022-08-01T05:30:20;16.00;99.90
51637;DHT22;37713;53.254;6.460;2022-08-01T05:32:46;15.90;99.90
51637;DHT22;37713;53.254;6.460;2022-08-01T05:35:11;15.90;99.90
51637;DHT22;37713;53.254;6.460;2022-08-01T05:37:37;15.90;99.90
51637;DHT22;37713;53.254;6.460;2022-08-01T05:40:03;16.00;99.90
51637;DHT22;37713;53.254;6.460;2022-08-01T05:42:30;16.00;99.90
51637;DHT22;37713;53.254;6.460;2022-08-01T05:44:56;15.90;99.90
51637;DHT22;37713;53.254;6.460;2022-08-01T05:47:21;16.00;99.90
51637;DHT22;37713;53.254;6.460;2022-08-01T05:49:47;16.00;99.90
51637;DHT22;37713;53.254;6.460;2022-08-01T05:52:13;16.10;99.90
51637;DHT22;37713;53.254;6.460;2022-08-01T05:54:39;16.00;99.90
51637;DHT22;37713;53.254;6.460;2022-08-01T05:57:05;16.00;99.90
51637;DHT22;37713;53.254;6.460;2022-08-01T05:59:31;16.10;99.90
51637;DHT22;37713;53.254;6.460;2022-08-01T06:01:57;16.00;99.90
51637;DHT22;37713;53.254;6.460;2022-08-01T06:04:23;16.00;99.90
51637;DHT22;37713;53.254;6.460;2022-08-01T06:06:49;16.00;99.90
51637;DHT22;37713;53.254;6.460;2022-08-01T06:09:14;16.10;99.90
51637;DHT22;37713;53.254;6.460;2022-08-01T06:11:40;16.10;99.90
51637;DHT22;37713;53.254;6.460;2022-08-01T06:14:06;16.20;99.90
51637;DHT22;37713;53.254;6.460;2022-08-01T06:16:32;16.10;99.90
51637;DHT22;37713;53.254;6.460;2022-08-01T06:18:58;16.20;99.90
51637;DHT22;37713;53.254;6.460;2022-08-01T06:21:24;16.10;99.90
51637;DHT22;37713;53.254;6.460;2022-08-01T06:23:50;16.20;99.90
51637;DHT22;37713;53.254;6.460;2022-08-01T06:26:19;16.20;99.90
51637;DHT22;37713;53.254;6.460;2022-08-01T06:28:45;16.20;99.90
51637;DHT22;37713;53.254;6.460;2022-08-01T06:31:11;16.20;99.90
51637;DHT22;37713;53.254;6.460;2022-08-01T06:33:39;16.20;99.90
51637;DHT22;37713;53.254;6.460;2022-08-01T06:36:05;16.30;99.90
51637;DHT22;37713;53.254;6.460;2022-08-01T06:38:30;16.40;99.90
51637;DHT22;37713;53.254;6.460;2022-08-01T06:40:56;16.40;99.90
51637;DHT22;37713;53.254;6.460;2022-08-01T06:43:22;16.50;99.90
51637;DHT22;37713;53.254;6.460;2022-08-01T06:45:48;16.60;99.90
51637;DHT22;37713;53.254;6.460;2022-08-01T06:48:14;16.60;99.90
51637;DHT22;37713;53.254;6.460;2022-08-01T06:50:40;16.80;99.90
51637;DHT22;37713;53.254;6.460;2022-08-01T06:53:06;16.80;99.90
51637;DHT22;37713;53.254;6.460;2022-08-01T06:55:32;17.00;99.90
51637;DHT22;37713;53.254;6.460;2022-08-01T06:57:57;17.30;99.90
51637;DHT22;37713;53.254;6.460;2022-08-01T07:00:24;17.70;99.90
51637;DHT22;37713;53.254;6.460;2022-08-01T07:02:55;18.00;99.90
51637;DHT22;37713;53.254;6.460;2022-08-01T07:05:22;18.20;99.90
51637;DHT22;37713;53.254;6.460;2022-08-01T07:07:48;18.50;99.90
51637;DHT22;37713;53.254;6.460;2022-08-01T07:10:13;18.80;99.90
51637;DHT22;37713;53.254;6.460;2022-08-01T07:12:39;19.00;99.90
51637;DHT22;37713;53.254;6.460;2022-08-01T07:15:08;19.30;99.90
51637;DHT22;37713;53.254;6.460;2022-08-01T07:17:40;19.20;99.90
51637;DHT22;37713;53.254;6.460;2022-08-01T07:20:08;19.30;99.90
51637;DHT22;37713;53.254;6.460;2022-08-01T07:22:34;19.70;99.90
51637;DHT22;37713;53.254;6.460;2022-08-01T07:24:59;19.90;99.90
51637;DHT22;37713;53.254;6.460;2022-08-01T07:27:25;20.00;99.90
51637;DHT22;37713;53.254;6.460;2022-08-01T07:29:51;20.40;99.90
51637;DHT22;37713;53.254;6.460;2022-08-01T07:32:17;20.40;99.90
51637;DHT22;37713;53.254;6.460;2022-08-01T07:34:42;20.50;99.90
51637;DHT22;37713;53.254;6.460;2022-08-01T07:37:08;20.80;99.90
51637;DHT22;37713;53.254;6.460;2022-08-01T07:39:34;20.80;99.90
51637;DHT22;37713;53.254;6.460;2022-08-01T07:41:59;20.80;99.90
51637;DHT22;37713;53.254;6.460;2022-08-01T07:44:25;20.80;99.90
51637;DHT22;37713;53.254;6.460;2022-08-01T07:46:51;20.40;99.90
51637;DHT22;37713;53.254;6.460;2022-08-01T07:49:17;20.10;99.90
51637;DHT22;37713;53.254;6.460;2022-08-01T07:51:43;19.90;99.90
51637;DHT22;37713;53.254;6.460;2022-08-01T07:54:08;20.00;99.90
51637;DHT22;37713;53.254;6.460;2022-08-01T07:56:34;20.20;99.90
51637;DHT22;37713;53.254;6.460;2022-08-01T07:59:00;20.70;99.90
51637;DHT22;37713;53.254;6.460;2022-08-01T08:01:26;20.40;99.90
51637;DHT22;37713;53.254;6.460;2022-08-01T08:03:52;20.10;99.90
51637;DHT22;37713;53.254;6.460;2022-08-01T08:06:18;19.60;99.90
51637;DHT22;37713;53.254;6.460;2022-08-01T08:08:44;19.70;99.90
51637;DHT22;37713;53.254;6.460;2022-08-01T08:11:10;20.00;99.90
51637;DHT22;37713;53.254;6.460;2022-08-01T08:13:35;20.00;99.90
51637;DHT22;37713;53.254;6.460;2022-08-01T08:16:01;20.20;99.90
51637;DHT22;37713;53.254;6.460;2022-08-01T08:18:27;20.20;99.90
51637;DHT22;37713;53.254;6.460;2022-08-01T08:20:53;20.30;99.90
51637;DHT22;37713;53.254;6.460;2022-08-01T08:23:19;20.30;99.90
51637;DHT22;37713;53.254;6.460;2022-08-01T08:26:03;20.20;99.90
51637;DHT22;37713;53.254;6.460;2022-08-01T08:28:29;20.30;99.90
51637;DHT22;37713;53.254;6.460;2022-08-01T08:30:55;20.50;99.90
51637;DHT22;37713;53.254;6.460;2022-08-01T08:33:21;20.60;99.90
51637;DHT22;37713;53.254;6.460;2022-08-01T08:35:47;20.80;99.90
51637;DHT22;37713;53.254;6.460;2022-08-01T08:38:12;20.70;99.90
51637;DHT22;37713;53.254;6.460;2022-08-01T08:40:38;20.40;99.90
51637;DHT22;37713;53.254;6.460;2022-08-01T08:43:05;20.50;99.90
51637;DHT22;37713;53.254;6.460;2022-08-01T08:45:32;20.30;99.90
51637;DHT22;37713;53.254;6.460;2022-08-01T08:47:58;20.20;99.90
51637;DHT22;37713;53.254;6.460;2022-08-01T08:50:25;20.20;99.90
51637;DHT22;37713;53.254;6.460;2022-08-01T08:52:53;19.70;99.90
51637;DHT22;37713;53.254;6.460;2022-08-01T08:55:20;19.70;99.90
51637;DHT22;37713;53.254;6.460;2022-08-01T08:57:47;19.80;99.90
51637;DHT22;37713;53.254;6.460;2022-08-01T09:00:14;19.70;99.90
51637;DHT22;37713;53.254;6.460;2022-08-01T09:02:46;19.50;99.90
51637;DHT22;37713;53.254;6.460;2022-08-01T09:05:12;19.80;99.90
51637;DHT22;37713;53.254;6.460;2022-08-01T09:07:38;20.00;99.90
51637;DHT22;37713;53.254;6.460;2022-08-01T09:10:05;20.10;99.90
51637;DHT22;37713;53.254;6.460;2022-08-01T09:12:31;20.10;99.90
51637;DHT22;37713;53.254;6.460;2022-08-01T09:14:57;20.20;99.90
51637;DHT22;37713;53.254;6.460;2022-08-01T09:17:23;20.40;99.90
51637;DHT22;37713;53.254;6.460;2022-08-01T09:19:51;20.40;99.90
51637;DHT22;37713;53.254;6.460;2022-08-01T09:22:20;20.30;99.90
51637;DHT22;37713;53.254;6.460;2022-08-01T09:25:00;20.00;99.90
51637;DHT22;37713;53.254;6.460;2022-08-01T09:27:27;20.10;99.90
51637;DHT22;37713;53.254;6.460;2022-08-01T09:29:54;19.90;99.90
51637;DHT22;37713;53.254;6.460;2022-08-01T09:32:20;19.70;99.90
51637;DHT22;37713;53.254;6.460;2022-08-01T09:34:46;19.60;99.90
51637;DHT22;37713;53.254;6.460;2022-08-01T09:37:13;19.70;99.90
51637;DHT22;37713;53.254;6.460;2022-08-01T09:39:43;19.70;99.90
51637;DHT22;37713;53.254;6.460;2022-08-01T09:42:24;19.80;99.90
51637;DHT22;37713;53.254;6.460;2022-08-01T09:44:51;19.70;99.90
51637;DHT22;37713;53.254;6.460;2022-08-01T09:47:18;19.60;99.90
51637;DHT22;37713;53.254;6.460;2022-08-01T09:49:56;19.60;99.90
51637;DHT22;37713;53.254;6.460;2022-08-01T09:52:24;19.70;99.90
51637;DHT22;37713;53.254;6.460;2022-08-01T09:57:21;19.70;99.90
51637;DHT22;37713;53.254;6.460;2022-08-01T09:59:49;19.70;99.90
51637;DHT22;37713;53.254;6.460;2022-08-01T10:02:35;19.80;99.90
51637;DHT22;37713;53.254;6.460;2022-08-01T10:05:04;19.70;99.90
51637;DHT22;37713;53.254;6.460;2022-08-01T10:07:31;19.60;99.90
51637;DHT22;37713;53.254;6.460;2022-08-01T10:10:13;19.60;99.90
51637;DHT22;37713;53.254;6.460;2022-08-01T10:12:40;19.70;99.90
51637;DHT22;37713;53.254;6.460;2022-08-01T10:15:07;19.80;99.90
51637;DHT22;37713;53.254;6.460;2022-08-01T10:17:34;20.00;99.90
51637;DHT22;37713;53.254;6.460;2022-08-01T10:20:01;19.90;99.90
51637;DHT22;37713;53.254;6.460;2022-08-01T10:22:30;19.90;99.90
51637;DHT22;37713;53.254;6.460;2022-08-01T10:24:56;19.90;99.90
51637;DHT22;37713;53.254;6.460;2022-08-01T10:27:26;19.70;99.90
51637;DHT22;37713;53.254;6.460;2022-08-01T10:29:58;19.70;99.90
51637;DHT22;37713;53.254;6.460;2022-08-01T10:32:30;19.90;99.90
51637;DHT22;37713;53.254;6.460;2022-08-01T10:34:56;20.00;99.90
51637;DHT22;37713;53.254;6.460;2022-08-01T10:37:23;20.10;99.90
51637;DHT22;37713;53.254;6.460;2022-08-01T10:39:51;20.10;99.90
51637;DHT22;37713;53.254;6.460;2022-08-01T10:42:18;20.20;99.90
51637;DHT22;37713;53.254;6.460;2022-08-01T10:44:44;20.30;99.90
51637;DHT22;37713;53.254;6.460;2022-08-01T10:47:25;20.40;99.90
51637;DHT22;37713;53.254;6.460;2022-08-01T10:50:11;20.30;99.90
51637;DHT22;37713;53.254;6.460;2022-08-01T10:52:39;20.50;99.90
51637;DHT22;37713;53.254;6.460;2022-08-01T10:55:07;20.60;99.90
51637;DHT22;37713;53.254;6.460;2022-08-01T10:57:47;20.50;99.90
51637;DHT22;37713;53.254;6.460;2022-08-01T11:00:20;20.30;99.90
51637;DHT22;37713;53.254;6.460;2022-08-01T11:03:01;20.30;99.90
51637;DHT22;37713;53.254;6.460;2022-08-01T11:05:31;20.30;99.90
51637;DHT22;37713;53.254;6.460;2022-08-01T11:08:02;20.30;99.90
51637;DHT22;37713;53.254;6.460;2022-08-01T11:10:40;20.20;99.90
51637;DHT22;37713;53.254;6.460;2022-08-01T11:13:06;19.90;99.90
51637;DHT22;37713;53.254;6.460;2022-08-01T11:15:37;19.80;99.90
51637;DHT22;37713;53.254;6.460;2022-08-01T11:20:57;20.00;99.90
51637;DHT22;37713;53.254;6.460;2022-08-01T11:23:25;19.80;99.90
51637;DHT22;37713;53.254;6.460;2022-08-01T11:26:05;19.90;99.90
51637;DHT22;37713;53.254;6.460;2022-08-01T11:28:31;20.10;99.90
51637;DHT22;37713;53.254;6.460;2022-08-01T11:38:40;20.00;99.90
51637;DHT22;37713;53.254;6.460;2022-08-01T11:44:02;20.20;99.90
51637;DHT22;37713;53.254;6.460;2022-08-01T11:49:33;20.30;99.90
51637;DHT22;37713;53.254;6.460;2022-08-01T11:54:38;20.30;99.90
51637;DHT22;37713;53.254;6.460;2022-08-01T11:57:06;20.40;99.90
51637;DHT22;37713;53.254;6.460;2022-08-01T11:59:44;20.30;99.90
51637;DHT22;37713;53.254;6.460;2022-08-01T12:02:33;20.30;99.90
51637;DHT22;37713;53.254;6.460;2022-08-01T12:05:04;20.30;99.90
51637;DHT22;37713;53.254;6.460;2022-08-01T12:07:32;20.50;99.90
51637;DHT22;37713;53.254;6.460;2022-08-01T12:12:26;20.30;99.90
51637;DHT22;37713;53.254;6.460;2022-08-01T12:14:55;20.30;99.90
51637;DHT22;37713;53.254;6.460;2022-08-01T12:17:45;20.50;99.90
51637;DHT22;37713;53.254;6.460;2022-08-01T12:20:19;20.70;99.90
51637;DHT22;37713;53.254;6.460;2022-08-01T12:22:46;20.70;99.90
51637;DHT22;37713;53.254;6.460;2022-08-01T12:27:40;20.60;99.90
51637;DHT22;37713;53.254;6.460;2022-08-01T12:30:11;20.40;99.90
51637;DHT22;37713;53.254;6.460;2022-08-01T12:32:40;20.40;99.90
51637;DHT22;37713;53.254;6.460;2022-08-01T12:35:11;20.30;99.90
51637;DHT22;37713;53.254;6.460;2022-08-01T12:37:43;20.30;99.90
51637;DHT22;37713;53.254;6.460;2022-08-01T12:40:22;20.30;99.90
51637;DHT22;37713;53.254;6.460;2022-08-01T12:42:51;20.10;99.90
51637;DHT22;37713;53.254;6.460;2022-08-01T12:45:40;20.20;99.90
51637;DHT22;37713;53.254;6.460;2022-08-01T12:48:13;20.50;99.90
51637;DHT22;37713;53.254;6.460;2022-08-01T12:50:45;20.70;99.90
51637;DHT22;37713;53.254;6.460;2022-08-01T12:53:12;20.90;99.90
51637;DHT22;37713;53.254;6.460;2022-08-01T12:55:54;20.70;99.90
51637;DHT22;37713;53.254;6.460;2022-08-01T12:58:21;20.70;99.90
51637;DHT22;37713;53.254;6.460;2022-08-01T13:00:51;20.70;99.90
51637;DHT22;37713;53.254;6.460;2022-08-01T13:03:27;20.60;99.90
51637;DHT22;37713;53.254;6.460;2022-08-01T13:05:57;20.70;99.90
51637;DHT22;37713;53.254;6.460;2022-08-01T13:08:29;20.80;99.90
51637;DHT22;37713;53.254;6.460;2022-08-01T13:11:10;20.90;99.90
51637;DHT22;37713;53.254;6.460;2022-08-01T13:13:52;20.80;99.90
51637;DHT22;37713;53.254;6.460;2022-08-01T13:16:21;20.90;99.90
51637;DHT22;37713;53.254;6.460;2022-08-01T13:18:49;21.00;99.90
51637;DHT22;37713;53.254;6.460;2022-08-01T13:21:29;21.00;99.90
51637;DHT22;37713;53.254;6.460;2022-08-01T13:24:12;21.00;99.90
51637;DHT22;37713;53.254;6.460;2022-08-01T13:26:44;20.80;99.90
51637;DHT22;37713;53.254;6.460;2022-08-01T13:29:12;20.90;99.90
51637;DHT22;37713;53.254;6.460;2022-08-01T13:31:39;21.00;99.90
51637;DHT22;37713;53.254;6.460;2022-08-01T13:34:06;21.00;99.90
51637;DHT22;37713;53.254;6.460;2022-08-01T13:36:32;21.00;99.90
51637;DHT22;37713;53.254;6.460;2022-08-01T13:38:59;21.10;99.90
51637;DHT22;37713;53.254;6.460;2022-08-01T13:41:44;21.00;99.90
51637;DHT22;37713;53.254;6.460;2022-08-01T13:44:10;20.90;99.90
51637;DHT22;37713;53.254;6.460;2022-08-01T13:46:40;21.00;99.90
51637;DHT22;37713;53.254;6.460;2022-08-01T13:49:06;20.80;99.90
51637;DHT22;37713;53.254;6.460;2022-08-01T13:51:32;20.70;99.90
51637;DHT22;37713;53.254;6.460;2022-08-01T13:53:58;20.90;99.90
51637;DHT22;37713;53.254;6.460;2022-08-01T13:56:25;21.00;99.90
51637;DHT22;37713;53.254;6.460;2022-08-01T13:58:53;21.10;99.90
51637;DHT22;37713;53.254;6.460;2022-08-01T14:01:19;21.20;99.90
51637;DHT22;37713;53.254;6.460;2022-08-01T14:03:46;21.20;99.90
51637;DHT22;37713;53.254;6.460;2022-08-01T14:06:12;21.30;99.90
51637;DHT22;37713;53.254;6.460;2022-08-01T14:08:39;21.50;99.90
51637;DHT22;37713;53.254;6.460;2022-08-01T14:11:05;21.20;99.90
51637;DHT22;37713;53.254;6.460;2022-08-01T14:13:31;21.30;99.90
51637;DHT22;37713;53.254;6.460;2022-08-01T14:15:58;21.00;99.90
51637;DHT22;37713;53.254;6.460;2022-08-01T14:18:25;21.00;99.90
51637;DHT22;37713;53.254;6.460;2022-08-01T14:20:51;21.10;99.90
51637;DHT22;37713;53.254;6.460;2022-08-01T14:23:17;20.80;99.90
51637;DHT22;37713;53.254;6.460;2022-08-01T14:25:43;20.60;99.90
51637;DHT22;37713;53.254;6.460;2022-08-01T14:28:09;20.40;99.90
51637;DHT22;37713;53.254;6.460;2022-08-01T14:30:36;20.30;99.90
51637;DHT22;37713;53.254;6.460;2022-08-01T14:33:02;20.40;99.90
51637;DHT22;37713;53.254;6.460;2022-08-01T14:35:28;20.30;99.90
51637;DHT22;37713;53.254;6.460;2022-08-01T14:37:54;20.50;99.90
51637;DHT22;37713;53.254;6.460;2022-08-01T14:40:20;20.70;99.90
51637;DHT22;37713;53.254;6.460;2022-08-01T14:42:46;20.80;99.90
51637;DHT22;37713;53.254;6.460;2022-08-01T14:45:12;20.90;99.90
51637;DHT22;37713;53.254;6.460;2022-08-01T14:47:40;21.00;99.90
51637;DHT22;37713;53.254;6.460;2022-08-01T14:50:08;21.10;99.90
51637;DHT22;37713;53.254;6.460;2022-08-01T14:52:36;21.00;99.90
51637;DHT22;37713;53.254;6.460;2022-08-01T14:55:04;21.10;99.90
51637;DHT22;37713;53.254;6.460;2022-08-01T14:57:30;21.00;99.90
51637;DHT22;37713;53.254;6.460;2022-08-01T14:59:56;21.10;99.90
51637;DHT22;37713;53.254;6.460;2022-08-01T15:02:22;21.30;99.90
51637;DHT22;37713;53.254;6.460;2022-08-01T15:04:49;21.40;99.90
51637;DHT22;37713;53.254;6.460;2022-08-01T15:07:16;21.20;99.90
51637;DHT22;37713;53.254;6.460;2022-08-01T15:09:42;21.10;99.90
51637;DHT22;37713;53.254;6.460;2022-08-01T15:12:09;21.00;99.90
51637;DHT22;37713;53.254;6.460;2022-08-01T15:14:36;21.20;99.90
51637;DHT22;37713;53.254;6.460;2022-08-01T15:17:24;21.30;99.90
51637;DHT22;37713;53.254;6.460;2022-08-01T15:19:55;21.30;99.90
51637;DHT22;37713;53.254;6.460;2022-08-01T15:22:24;21.30;99.90
51637;DHT22;37713;53.254;6.460;2022-08-01T15:24:51;21.30;99.90
51637;DHT22;37713;53.254;6.460;2022-08-01T15:27:17;21.30;99.90
51637;DHT22;37713;53.254;6.460;2022-08-01T15:29:43;21.40;99.90
51637;DHT22;37713;53.254;6.460;2022-08-01T15:32:09;21.30;99.90
51637;DHT22;37713;53.254;6.460;2022-08-01T15:34:37;21.30;99.90
51637;DHT22;37713;53.254;6.460;2022-08-01T15:37:03;21.20;99.90
51637;DHT22;37713;53.254;6.460;2022-08-01T15:39:30;21.10;99.90
51637;DHT22;37713;53.254;6.460;2022-08-01T15:42:11;20.90;99.90
51637;DHT22;37713;53.254;6.460;2022-08-01T15:44:37;20.80;99.90
51637;DHT22;37713;53.254;6.460;2022-08-01T15:47:04;20.90;99.90
51637;DHT22;37713;53.254;6.460;2022-08-01T15:49:30;21.00;99.90
51637;DHT22;37713;53.254;6.460;2022-08-01T15:51:56;21.00;99.90
51637;DHT22;37713;53.254;6.460;2022-08-01T15:54:23;20.90;99.90
51637;DHT22;37713;53.254;6.460;2022-08-01T15:56:49;21.00;99.90
51637;DHT22;37713;53.254;6.460;2022-08-01T15:59:15;20.90;99.90
51637;DHT22;37713;53.254;6.460;2022-08-01T16:01:41;20.90;99.90
51637;DHT22;37713;53.254;6.460;2022-08-01T16:04:07;21.00;99.90
51637;DHT22;37713;53.254;6.460;2022-08-01T16:06:34;20.90;99.90
51637;DHT22;37713;53.254;6.460;2022-08-01T16:09:00;20.80;99.90
51637;DHT22;37713;53.254;6.460;2022-08-01T16:11:26;20.50;99.90
51637;DHT22;37713;53.254;6.460;2022-08-01T16:13:53;20.50;99.90